sensor_id;sensor_type;location;lat;lon;timestamp;pressure;altitude;pressure_sealevel;temperature;humidity
23170;BME280;11753;43.144;24.714;2023-04-09T00:00:22;99980.44;;;8.66;97.22
23170;BME280;11753;43.144;24.714;2023-04-09T00:01:23;99980.13;;;8.60;97.65
23170;BME280;11753;43.144;24.714;2023-04-09T00:02:24;99984.25;;;8.62;97.61
23170;BME280;11753;43.144;24.714;2023-04-09T00:03:25;99979.28;;;8.59;97.37
23170;BME280;11753;43.144;24.714;2023-04-09T00:04:26;99982.88;;;8.58;97.40
23170;BME280;11753;43.144;24.714;2023-04-09T00:05:26;99984.94;;;8.64;97.47
23170;BME280;11753;43.144;24.714;2023-04-09T00:06:27;99982.06;;;8.58;97.51
23170;BME280;11753;43.144;24.714;2023-04-09T00:07:28;99980.94;;;8.60;97.50
23170;BME280;11753;43.144;24.714;2023-04-09T00:08:30;99990.47;;;8.61;97.54
23170;BME280;11753;43.144;24.714;2023-04-09T00:09:31;99978.78;;;8.65;97.29
23170;BME280;11753;43.144;24.714;2023-04-09T00:10:32;99982.91;;;8.68;97.14
23170;BME280;11753;43.144;24.714;2023-04-09T00:11:33;99985.91;;;8.63;97.12
23170;BME280;11753;43.144;24.714;2023-04-09T00:12:34;99980.94;;;8.60;97.17
23170;BME280;11753;43.144;24.714;2023-04-09T00:13:35;99981.19;;;8.57;97.27
23170;BME280;11753;43.144;24.714;2023-04-09T00:14:39;99977.75;;;8.57;97.47
23170;BME280;11753;43.144;24.714;2023-04-09T00:15:40;99982.59;;;8.61;97.03
23170;BME280;11753;43.144;24.714;2023-04-09T00:16:41;99982.31;;;8.64;97.22
23170;BME280;11753;43.144;24.714;2023-04-09T00:17:42;99977.34;;;8.61;97.07
23170;BME280;11753;43.144;24.714;2023-04-09T00:18:42;99982.31;;;8.64;97.18
23170;BME280;11753;43.144;24.714;2023-04-09T00:19:43;99984.84;;;8.66;96.99
23170;BME280;11753;43.144;24.714;2023-04-09T00:20:43;99982.78;;;8.69;96.65
23170;BME280;11753;43.144;24.714;2023-04-09T00:21:45;99983.19;;;8.65;96.62
23170;BME280;11753;43.144;24.714;2023-04-09T00:22:46;99985.69;;;8.66;96.68
23170;BME280;11753;43.144;24.714;2023-04-09T00:23:48;99975.00;;;8.58;96.84
23170;BME280;11753;43.144;24.714;2023-04-09T00:24:49;99987.84;;;8.61;97.04
23170;BME280;11753;43.144;24.714;2023-04-09T00:25:50;99986.88;;;8.62;97.00
23170;BME280;11753;43.144;24.714;2023-04-09T00:26:51;99990.03;;;8.56;96.85
23170;BME280;11753;43.144;24.714;2023-04-09T00:27:53;99984.78;;;8.56;97.16
23170;BME280;11753;43.144;24.714;2023-04-09T00:28:55;99982.06;;;8.58;97.17
23170;BME280;11753;43.144;24.714;2023-04-09T00:29:56;99989.06;;;8.57;97.32
23170;BME280;11753;43.144;24.714;2023-04-09T00:30:57;99983.13;;;8.55;97.45
23170;BME280;11753;43.144;24.714;2023-04-09T00:31:58;99988.13;;;8.58;97.44
23170;BME280;11753;43.144;24.714;2023-04-09T00:32:59;99989.66;;;8.61;97.35
23170;BME280;11753;43.144;24.714;2023-04-09T00:34:00;99989.19;;;8.55;97.43
23170;BME280;11753;43.144;24.714;2023-04-09T00:35:01;99982.28;;;8.54;97.54
23170;BME280;11753;43.144;24.714;2023-04-09T00:36:02;99991.69;;;8.57;97.51
23170;BME280;11753;43.144;24.714;2023-04-09T00:37:03;99984.25;;;8.62;97.30
23170;BME280;11753;43.144;24.714;2023-04-09T00:38:03;99987.56;;;8.64;96.81
23170;BME280;11753;43.144;24.714;2023-04-09T00:39:04;99990.66;;;8.69;96.92
23170;BME280;11753;43.144;24.714;2023-04-09T00:40:06;99985.91;;;8.63;96.94
23170;BME280;11753;43.144;24.714;2023-04-09T00:41:07;99987.34;;;8.67;96.87
23170;BME280;11753;43.144;24.714;2023-04-09T00:42:08;99994.69;;;8.73;96.43
23170;BME280;11753;43.144;24.714;2023-04-09T00:43:09;99992.06;;;8.73;96.45
23170;BME280;11753;43.144;24.714;2023-04-09T00:44:12;99987.34;;;8.67;96.36
23170;BME280;11753;43.144;24.714;2023-04-09T00:45:13;99988.16;;;8.68;96.38
23170;BME280;11753;43.144;24.714;2023-04-09T00:46:13;99990.78;;;8.68;96.41
23170;BME280;11753;43.144;24.714;2023-04-09T00:47:18;99991.16;;;8.63;96.40
23170;BME280;11753;43.144;24.714;2023-04-09T00:48:19;99987.34;;;8.67;96.24
23170;BME280;11753;43.144;24.714;2023-04-09T00:49:21;99985.69;;;8.66;96.53
23170;BME280;11753;43.144;24.714;2023-04-09T00:50:24;99985.69;;;8.66;96.16
23170;BME280;11753;43.144;24.714;2023-04-09T00:51:25;99985.81;;;8.65;96.29
23170;BME280;11753;43.144;24.714;2023-04-09T00:52:27;99990.91;;;8.66;96.09
23170;BME280;11753;43.144;24.714;2023-04-09T00:53:30;99987.56;;;8.64;96.09
23170;BME280;11753;43.144;24.714;2023-04-09T00:54:31;99984.94;;;8.64;96.22
23170;BME280;11753;43.144;24.714;2023-04-09T00:55:32;99996.84;;;8.68;96.02
23170;BME280;11753;43.144;24.714;2023-04-09T00:56:33;99989.25;;;8.65;96.04
23170;BME280;11753;43.144;24.714;2023-04-09T00:57:34;99990.09;;;8.66;96.08
23170;BME280;11753;43.144;24.714;2023-04-09T00:58:36;99983.88;;;8.67;96.13
23170;BME280;11753;43.144;24.714;2023-04-09T00:59:37;99980.97;;;8.70;96.13
23170;BME280;11753;43.144;24.714;2023-04-09T01:00:38;99976.84;;;8.67;96.19
23170;BME280;11753;43.144;24.714;2023-04-09T01:01:39;99983.75;;;8.68;96.23
23170;BME280;11753;43.144;24.714;2023-04-09T01:02:40;99983.06;;;8.66;95.96
23170;BME280;11753;43.144;24.714;2023-04-09T01:03:41;99979.59;;;8.66;96.22
23170;BME280;11753;43.144;24.714;2023-04-09T01:04:42;99985.69;;;8.66;95.87
23170;BME280;11753;43.144;24.714;2023-04-09T01:06:02;99976.25;;;8.64;96.35
23170;BME280;11753;43.144;24.714;2023-04-09T01:07:29;99980.16;;;8.69;96.10
23170;BME280;11753;43.144;24.714;2023-04-09T01:08:58;99979.59;;;8.66;96.09
23170;BME280;11753;43.144;24.714;2023-04-09T01:11:31;99991.16;;;8.63;95.98
23170;BME280;11753;43.144;24.714;2023-04-09T01:15:24;99984.53;;;8.59;96.60
23170;BME280;11753;43.144;24.714;2023-04-09T01:16:28;99994.19;;;8.59;96.51
23170;BME280;11753;43.144;24.714;2023-04-09T01:20:58;99993.91;;;8.52;96.59
23170;BME280;11753;43.144;24.714;2023-04-09T01:22:01;99983.41;;;8.52;96.75
23170;BME280;11753;43.144;24.714;2023-04-09T01:23:28;99977.88;;;8.55;96.52
23170;BME280;11753;43.144;24.714;2023-04-09T01:24:41;99989.78;;;8.59;96.28
23170;BME280;11753;43.144;24.714;2023-04-09T01:27:06;99979.06;;;8.41;96.99
23170;BME280;11753;43.144;24.714;2023-04-09T01:28:48;99984.16;;;8.43;96.94
23170;BME280;11753;43.144;24.714;2023-04-09T01:29:46;99979.88;;;8.42;97.03
23170;BME280;11753;43.144;24.714;2023-04-09T01:30:49;99980.31;;;8.47;96.90
23170;BME280;11753;43.144;24.714;2023-04-09T01:31:52;99980.31;;;8.47;96.85
23170;BME280;11753;43.144;24.714;2023-04-09T01:32:57;99976.19;;;8.44;96.84
23170;BME280;11753;43.144;24.714;2023-04-09T01:33:59;99976.28;;;8.43;96.89
23170;BME280;11753;43.144;24.714;2023-04-09T01:35:01;99987.75;;;8.42;97.17
23170;BME280;11753;43.144;24.714;2023-04-09T01:36:03;99982.50;;;8.42;97.11
23170;BME280;11753;43.144;24.714;2023-04-09T01:37:07;99979.78;;;8.43;97.25
23170;BME280;11753;43.144;24.714;2023-04-09T01:38:10;99981.94;;;8.38;97.19
23170;BME280;11753;43.144;24.714;2023-04-09T01:39:12;99981.13;;;8.38;97.36
23170;BME280;11753;43.144;24.714;2023-04-09T01:40:13;99992.31;;;8.40;97.26
23170;BME280;11753;43.144;24.714;2023-04-09T01:41:18;99983.97;;;8.35;97.37
23170;BME280;11753;43.144;24.714;2023-04-09T01:42:22;99983.25;;;8.33;97.47
23170;BME280;11753;43.144;24.714;2023-04-09T01:43:24;99985.88;;;8.33;97.50
23170;BME280;11753;43.144;24.714;2023-04-09T01:44:26;99985.19;;;8.31;97.50
23170;BME280;11753;43.144;24.714;2023-04-09T01:45:28;99983.41;;;8.31;97.67
23170;BME280;11753;43.144;24.714;2023-04-09T01:46:29;99980.78;;;8.31;97.72
23170;BME280;11753;43.144;24.714;2023-04-09T01:47:32;99978.16;;;8.31;97.69
23170;BME280;11753;43.144;24.714;2023-04-09T01:48:34;99986.84;;;8.32;97.66
23170;BME280;11753;43.144;24.714;2023-04-09T01:49:36;99979.81;;;8.32;97.74
23170;BME280;11753;43.144;24.714;2023-04-09T01:50:38;99983.03;;;8.36;97.53
23170;BME280;11753;43.144;24.714;2023-04-09T01:51:40;99985.41;;;8.39;97.54
23170;BME280;11753;43.144;24.714;2023-04-09T01:52:41;99984.91;;;8.34;97.53
23170;BME280;11753;43.144;24.714;2023-04-09T01:53:43;99983.59;;;8.39;97.35
23170;BME280;11753;43.144;24.714;2023-04-09T01:54:44;99980.16;;;8.39;97.60
23170;BME280;11753;43.144;24.714;2023-04-09T01:55:44;99978.72;;;8.35;97.45
23170;BME280;11753;43.144;24.714;2023-04-09T01:56:47;99990.16;;;8.34;97.72
23170;BME280;11753;43.144;24.714;2023-04-09T01:57:48;99982.72;;;8.29;98.14
23170;BME280;11753;43.144;24.714;2023-04-09T01:58:49;99982.13;;;8.25;98.52
23170;BME280;11753;43.144;24.714;2023-04-09T01:59:50;99981.94;;;8.17;98.85
23170;BME280;11753;43.144;24.714;2023-04-09T02:00:59;99990.25;;;8.22;98.47
23170;BME280;11753;43.144;24.714;2023-04-09T02:02:09;99984.28;;;8.20;98.19
23170;BME280;11753;43.144;24.714;2023-04-09T02:04:38;99978.16;;;8.10;98.78
23170;BME280;11753;43.144;24.714;2023-04-09T02:06:05;99982.91;;;8.16;98.83
23170;BME280;11753;43.144;24.714;2023-04-09T02:07:33;99987.84;;;8.10;98.74
23170;BME280;11753;43.144;24.714;2023-04-09T02:08:33;99982.31;;;8.13;98.63
23170;BME280;11753;43.144;24.714;2023-04-09T02:09:36;99983.41;;;8.10;98.67
23170;BME280;11753;43.144;24.714;2023-04-09T02:10:39;99979.19;;;7.98;99.48
23170;BME280;11753;43.144;24.714;2023-04-09T02:11:43;99980.84;;;7.99;99.52
23170;BME280;11753;43.144;24.714;2023-04-09T02:12:50;99975.88;;;7.96;99.86
23170;BME280;11753;43.144;24.714;2023-04-09T02:13:53;99971.19;;;7.99;99.51
23170;BME280;11753;43.144;24.714;2023-04-09T02:14:56;99977.56;;;7.86;100.00
23170;BME280;11753;43.144;24.714;2023-04-09T02:15:58;99980.19;;;7.86;100.00
23170;BME280;11753;43.144;24.714;2023-04-09T02:17:00;99976.25;;;7.91;100.00
23170;BME280;11753;43.144;24.714;2023-04-09T02:18:01;99975.88;;;7.96;99.85
23170;BME280;11753;43.144;24.714;2023-04-09T02:19:02;99978.50;;;7.96;99.54
23170;BME280;11753;43.144;24.714;2023-04-09T02:20:03;99983.03;;;7.94;99.31
23170;BME280;11753;43.144;24.714;2023-04-09T02:21:04;99979.00;;;7.90;99.90
23170;BME280;11753;43.144;24.714;2023-04-09T02:22:06;99979.13;;;7.88;99.69
23170;BME280;11753;43.144;24.714;2023-04-09T02:23:06;99979.81;;;7.90;100.00
23170;BME280;11753;43.144;24.714;2023-04-09T02:24:07;99985.19;;;7.89;99.86
23170;BME280;11753;43.144;24.714;2023-04-09T02:25:08;99981.63;;;7.90;99.97
23170;BME280;11753;43.144;24.714;2023-04-09T02:26:09;99982.22;;;7.93;100.00
23170;BME280;11753;43.144;24.714;2023-04-09T02:27:10;99982.44;;;7.90;100.00
23170;BME280;11753;43.144;24.714;2023-04-09T02:28:11;99983.47;;;7.99;100.00
23170;BME280;11753;43.144;24.714;2023-04-09T02:29:12;99983.09;;;8.04;99.83
23170;BME280;11753;43.144;24.714;2023-04-09T02:30:13;99985.34;;;8.08;99.96
23170;BME280;11753;43.144;24.714;2023-04-09T02:31:14;99986.03;;;8.10;99.93
23170;BME280;11753;43.144;24.714;2023-04-09T02:32:18;99986.53;;;8.04;99.52
23170;BME280;11753;43.144;24.714;2023-04-09T02:33:19;99993.00;;;8.00;99.68
23170;BME280;11753;43.144;24.714;2023-04-09T02:34:20;99987.63;;;7.81;100.00
23170;BME280;11753;43.144;24.714;2023-04-09T02:35:21;99990.31;;;7.90;100.00
23170;BME280;11753;43.144;24.714;2023-04-09T02:36:22;99989.94;;;7.95;100.00
23170;BME280;11753;43.144;24.714;2023-04-09T02:37:23;99991.00;;;7.92;100.00
23170;BME280;11753;43.144;24.714;2023-04-09T02:38:24;99999.00;;;7.91;100.00
23170;BME280;11753;43.144;24.714;2023-04-09T02:39:24;99996.66;;;7.88;100.00
23170;BME280;11753;43.144;24.714;2023-04-09T02:40:26;99996.38;;;7.91;100.00
23170;BME280;11753;43.144;24.714;2023-04-09T02:41:27;100006.22;;;7.98;100.00
23170;BME280;11753;43.144;24.714;2023-04-09T02:42:28;99997.41;;;7.99;100.00
23170;BME280;11753;43.144;24.714;2023-04-09T02:43:29;100006.31;;;8.08;100.00
23170;BME280;11753;43.144;24.714;2023-04-09T02:44:30;100005.34;;;8.09;100.00
23170;BME280;11753;43.144;24.714;2023-04-09T02:45:31;100002.13;;;8.06;100.00
23170;BME280;11753;43.144;24.714;2023-04-09T02:46:32;99996.84;;;7.96;100.00
23170;BME280;11753;43.144;24.714;2023-04-09T02:47:33;100000.66;;;7.92;100.00
23170;BME280;11753;43.144;24.714;2023-04-09T02:48:34;99997.41;;;7.99;100.00
23170;BME280;11753;43.144;24.714;2023-04-09T02:49:35;99998.56;;;8.07;100.00
23170;BME280;11753;43.144;24.714;2023-04-09T02:50:36;100006.31;;;8.08;100.00
23170;BME280;11753;43.144;24.714;2023-04-09T02:51:36;99989.16;;;8.04;100.00
23170;BME280;11753;43.144;24.714;2023-04-09T02:52:37;99993.22;;;8.08;100.00
23170;BME280;11753;43.144;24.714;2023-04-09T02:53:38;99994.59;;;8.12;100.00
23170;BME280;11753;43.144;24.714;2023-04-09T02:54:40;99997.81;;;8.16;100.00
23170;BME280;11753;43.144;24.714;2023-04-09T02:55:41;99995.56;;;8.11;100.00
23170;BME280;11753;43.144;24.714;2023-04-09T02:56:42;99994.59;;;8.12;100.00
23170;BME280;11753;43.144;24.714;2023-04-09T02:57:46;99997.09;;;8.14;100.00
23170;BME280;11753;43.144;24.714;2023-04-09T02:58:47;99998.38;;;8.19;100.00
23170;BME280;11753;43.144;24.714;2023-04-09T02:59:51;99998.00;;;8.24;100.00
23170;BME280;11753;43.144;24.714;2023-04-09T03:00:52;99999.50;;;8.26;100.00
23170;BME280;11753;43.144;24.714;2023-04-09T03:01:53;99995.50;;;8.22;100.00
23170;BME280;11753;43.144;24.714;2023-04-09T03:02:54;99989.72;;;8.28;100.00
23170;BME280;11753;43.144;24.714;2023-04-09T03:03:55;99987.38;;;8.25;100.00
23170;BME280;11753;43.144;24.714;2023-04-09T03:04:56;99992.09;;;8.32;100.00
23170;BME280;11753;43.144;24.714;2023-04-09T03:05:56;99993.06;;;8.31;99.98
23170;BME280;11753;43.144;24.714;2023-04-09T03:06:57;99992.69;;;8.35;100.00
23170;BME280;11753;43.144;24.714;2023-04-09T03:07:57;99993.44;;;8.26;99.94
23170;BME280;11753;43.144;24.714;2023-04-09T03:08:58;99991.75;;;8.15;100.00
23170;BME280;11753;43.144;24.714;2023-04-09T03:09:59;99991.84;;;8.14;100.00
23170;BME280;11753;43.144;24.714;2023-04-09T03:11:00;99979.31;;;8.17;100.00
23170;BME280;11753;43.144;24.714;2023-04-09T03:12:01;99989.28;;;8.23;100.00
23170;BME280;11753;43.144;24.714;2023-04-09T03:13:02;99986.03;;;8.31;100.00
23170;BME280;11753;43.144;24.714;2023-04-09T03:14:03;99987.69;;;8.32;100.00
23170;BME280;11753;43.144;24.714;2023-04-09T03:15:08;99993.19;;;8.29;100.00
23170;BME280;11753;43.144;24.714;2023-04-09T03:16:09;99986.22;;;8.18;100.00
23170;BME280;11753;43.144;24.714;2023-04-09T03:17:10;99983.97;;;8.14;100.00
23170;BME280;11753;43.144;24.714;2023-04-09T03:18:11;99989.53;;;8.20;100.00
23170;BME280;11753;43.144;24.714;2023-04-09T03:19:12;99991.78;;;8.25;100.00
23170;BME280;11753;43.144;24.714;2023-04-09T03:20:13;99994.03;;;8.30;100.00
23170;BME280;11753;43.144;24.714;2023-04-09T03:21:14;99997.22;;;8.33;100.00
23170;BME280;11753;43.144;24.714;2023-04-09T03:22:15;99992.78;;;8.34;100.00
23170;BME280;11753;43.144;24.714;2023-04-09T03:23:16;99996.13;;;8.36;100.00
23170;BME280;11753;43.144;24.714;2023-04-09T03:24:17;100006.25;;;8.40;100.00
23170;BME280;11753;43.144;24.714;2023-04-09T03:25:18;99997.41;;;8.41;100.00
23170;BME280;11753;43.144;24.714;2023-04-09T03:26:20;100005.75;;;8.46;100.00
23170;BME280;11753;43.144;24.714;2023-04-09T03:27:21;100001.03;;;8.50;100.00
23170;BME280;11753;43.144;24.714;2023-04-09T03:28:22;100000.53;;;8.56;99.92
23170;BME280;11753;43.144;24.714;2023-04-09T03:29:22;100001.03;;;8.50;99.51
23170;BME280;11753;43.144;24.714;2023-04-09T03:30:23;100002.97;;;8.48;99.76
23170;BME280;11753;43.144;24.714;2023-04-09T03:31:24;99992.75;;;8.45;99.85
23170;BME280;11753;43.144;24.714;2023-04-09T03:32:25;100001.03;;;8.50;99.75
23170;BME280;11753;43.144;24.714;2023-04-09T03:33:26;100001.63;;;8.53;99.85
23170;BME280;11753;43.144;24.714;2023-04-09T03:34:27;99997.91;;;8.56;99.63
23170;BME280;11753;43.144;24.714;2023-04-09T03:35:28;100005.91;;;8.54;99.64
23170;BME280;11753;43.144;24.714;2023-04-09T03:36:29;100002.19;;;8.57;99.73
23170;BME280;11753;43.144;24.714;2023-04-09T03:37:30;100002.91;;;8.59;99.39
23170;BME280;11753;43.144;24.714;2023-04-09T03:38:31;100006.06;;;8.53;99.74
23170;BME280;11753;43.144;24.714;2023-04-09T03:39:32;99998.56;;;8.48;100.00
23170;BME280;11753;43.144;24.714;2023-04-09T03:40:33;100002.47;;;8.54;100.00
23170;BME280;11753;43.144;24.714;2023-04-09T03:41:35;100008.53;;;8.54;99.98
23170;BME280;11753;43.144;24.714;2023-04-09T03:42:36;100007.44;;;8.57;99.79
23170;BME280;11753;43.144;24.714;2023-04-09T03:43:37;100003.59;;;8.61;99.77
23170;BME280;11753;43.144;24.714;2023-04-09T03:44:38;100000.00;;;8.62;99.69
23170;BME280;11753;43.144;24.714;2023-04-09T03:45:38;100012.06;;;8.65;99.48
23170;BME280;11753;43.144;24.714;2023-04-09T03:46:39;100015.22;;;8.68;99.42
23170;BME280;11753;43.144;24.714;2023-04-09T03:47:40;100006.38;;;8.69;99.36
23170;BME280;11753;43.144;24.714;2023-04-09T03:48:42;100007.50;;;8.67;99.32
23170;BME280;11753;43.144;24.714;2023-04-09T03:49:44;100003.06;;;8.67;99.21
23170;BME280;11753;43.144;24.714;2023-04-09T03:50:45;100001.16;;;8.69;99.19
23170;BME280;11753;43.144;24.714;2023-04-09T03:51:46;100010.97;;;8.77;98.91
23170;BME280;11753;43.144;24.714;2023-04-09T03:52:47;100002.28;;;8.76;98.69
23170;BME280;11753;43.144;24.714;2023-04-09T03:53:48;100002.97;;;8.78;98.91
23170;BME280;11753;43.144;24.714;2023-04-09T03:54:52;100012.53;;;8.79;98.71
23170;BME280;11753;43.144;24.714;2023-04-09T03:55:53;100009.06;;;8.79;98.68
23170;BME280;11753;43.144;24.714;2023-04-09T03:56:54;100008.72;;;8.63;99.25
23170;BME280;11753;43.144;24.714;2023-04-09T03:57:55;100008.19;;;8.69;98.68
23170;BME280;11753;43.144;24.714;2023-04-09T03:58:56;100012.78;;;8.76;98.61
23170;BME280;11753;43.144;24.714;2023-04-09T03:59:56;100008.03;;;8.70;98.59
23170;BME280;11753;43.144;24.714;2023-04-09T04:00:57;100010.16;;;8.76;98.26
23170;BME280;11753;43.144;24.714;2023-04-09T04:01:58;100009.75;;;8.81;97.96
23170;BME280;11753;43.144;24.714;2023-04-09T04:02:59;100017.50;;;8.82;97.76
23170;BME280;11753;43.144;24.714;2023-04-09T04:04:00;100018.19;;;8.85;97.49
23170;BME280;11753;43.144;24.714;2023-04-09T04:05:01;100011.03;;;8.87;97.18
23170;BME280;11753;43.144;24.714;2023-04-09T04:06:02;100010.59;;;8.81;97.27
23170;BME280;11753;43.144;24.714;2023-04-09T04:07:03;100014.19;;;8.80;96.99
23170;BME280;11753;43.144;24.714;2023-04-09T04:08:04;100010.84;;;8.78;97.15
23170;BME280;11753;43.144;24.714;2023-04-09T04:09:05;100017.06;;;8.77;97.53
23170;BME280;11753;43.144;24.714;2023-04-09T04:10:07;100013.59;;;8.77;97.32
23170;BME280;11753;43.144;24.714;2023-04-09T04:11:08;100017.50;;;8.82;97.37
23170;BME280;11753;43.144;24.714;2023-04-09T04:12:09;100016.81;;;8.80;97.51
23170;BME280;11753;43.144;24.714;2023-04-09T04:13:10;100011.72;;;8.89;97.09
23170;BME280;11753;43.144;24.714;2023-04-09T04:14:11;100021.25;;;8.90;97.18
23170;BME280;11753;43.144;24.714;2023-04-09T04:15:12;100017.22;;;8.86;97.03
23170;BME280;11753;43.144;24.714;2023-04-09T04:16:13;100010.22;;;8.86;97.17
23170;BME280;11753;43.144;24.714;2023-04-09T04:17:14;100016.84;;;8.90;97.06
23170;BME280;11753;43.144;24.714;2023-04-09T04:18:15;100016.00;;;8.90;96.77
23170;BME280;11753;43.144;24.714;2023-04-09T04:19:16;100014.34;;;8.89;96.38
23170;BME280;11753;43.144;24.714;2023-04-09T04:20:17;100016.97;;;8.89;96.78
23170;BME280;11753;43.144;24.714;2023-04-09T04:21:18;100017.22;;;8.86;96.68
23170;BME280;11753;43.144;24.714;2023-04-09T04:22:19;100015.03;;;8.81;96.70
23170;BME280;11753;43.144;24.714;2023-04-09T04:23:20;100020.13;;;8.82;96.96
23170;BME280;11753;43.144;24.714;2023-04-09T04:24:21;100015.56;;;8.85;96.45
23170;BME280;11753;43.144;24.714;2023-04-09T04:25:22;100007.28;;;8.79;96.51
23170;BME280;11753;43.144;24.714;2023-04-09T04:26:23;100020.97;;;8.83;96.82
23170;BME280;11753;43.144;24.714;2023-04-09T04:27:24;100013.09;;;8.83;96.71
23170;BME280;11753;43.144;24.714;2023-04-09T04:28:25;100025.00;;;8.87;96.74
23170;BME280;11753;43.144;24.714;2023-04-09T04:29:26;100022.91;;;8.91;96.77
23170;BME280;11753;43.144;24.714;2023-04-09T04:30:27;100025.53;;;8.91;96.52
23170;BME280;11753;43.144;24.714;2023-04-09T04:31:28;100026.91;;;8.85;96.32
23170;BME280;11753;43.144;24.714;2023-04-09T04:32:28;100020.56;;;8.88;96.42
23170;BME280;11753;43.144;24.714;2023-04-09T04:33:29;100023.03;;;8.79;96.66
23170;BME280;11753;43.144;24.714;2023-04-09T04:34:30;100021.94;;;8.82;96.43
23170;BME280;11753;43.144;24.714;2023-04-09T04:35:31;100016.41;;;8.85;96.67
23170;BME280;11753;43.144;24.714;2023-04-09T04:36:32;100028.31;;;8.89;96.19
23170;BME280;11753;43.144;24.714;2023-04-09T04:37:33;100029.72;;;8.93;96.33
23170;BME280;11753;43.144;24.714;2023-04-09T04:38:35;100033.19;;;8.94;96.45
23170;BME280;11753;43.144;24.714;2023-04-09T04:39:36;100022.22;;;8.89;96.49
23170;BME280;11753;43.144;24.714;2023-04-09T04:40:37;100039.13;;;8.96;96.54
23170;BME280;11753;43.144;24.714;2023-04-09T04:41:38;100033.88;;;8.96;96.44
23170;BME280;11753;43.144;24.714;2023-04-09T04:42:39;100027.50;;;8.98;96.27
23170;BME280;11753;43.144;24.714;2023-04-09T04:43:40;100029.88;;;9.01;96.20
23170;BME280;11753;43.144;24.714;2023-04-09T04:44:41;100026.16;;;9.04;95.97
23170;BME280;11753;43.144;24.714;2023-04-09T04:45:42;100033.88;;;9.05;95.56
23170;BME280;11753;43.144;24.714;2023-04-09T04:46:43;100027.81;;;9.05;95.77
23170;BME280;11753;43.144;24.714;2023-04-09T04:47:44;100032.81;;;9.08;95.86
23170;BME280;11753;43.144;24.714;2023-04-09T04:48:44;100029.22;;;9.09;95.74
23170;BME280;11753;43.144;24.714;2023-04-09T04:49:45;100027.28;;;9.11;95.51
23170;BME280;11753;43.144;24.714;2023-04-09T04:50:46;100023.00;;;9.10;94.97
23170;BME280;11753;43.144;24.714;2023-04-09T04:51:47;100030.72;;;9.02;94.91
23170;BME280;11753;43.144;24.714;2023-04-09T04:52:48;100031.94;;;8.98;95.22
23170;BME280;11753;43.144;24.714;2023-04-09T04:53:49;100028.34;;;8.99;95.59
23170;BME280;11753;43.144;24.714;2023-04-09T04:54:50;100030.44;;;9.05;95.88
23170;BME280;11753;43.144;24.714;2023-04-09T04:55:52;100022.56;;;9.05;95.59
23170;BME280;11753;43.144;24.714;2023-04-09T04:56:53;100028.09;;;9.02;95.73
23170;BME280;11753;43.144;24.714;2023-04-09T04:57:54;100033.06;;;9.05;95.99
23170;BME280;11753;43.144;24.714;2023-04-09T04:58:55;100029.06;;;9.01;96.19
23170;BME280;11753;43.144;24.714;2023-04-09T04:59:56;100020.03;;;8.94;96.69
23170;BME280;11753;43.144;24.714;2023-04-09T05:00:56;100028.91;;;9.02;96.33
23170;BME280;11753;43.144;24.714;2023-04-09T05:01:57;100024.94;;;9.08;96.22
23170;BME280;11753;43.144;24.714;2023-04-09T05:02:58;100026.59;;;9.09;96.08
23170;BME280;11753;43.144;24.714;2023-04-09T05:03:59;100021.06;;;9.12;95.90
23170;BME280;11753;43.144;24.714;2023-04-09T05:05:01;100032.00;;;9.17;96.11
23170;BME280;11753;43.144;24.714;2023-04-09T05:06:02;100030.88;;;9.10;96.10
23170;BME280;11753;43.144;24.714;2023-04-09T05:07:03;100030.72;;;9.12;96.12
23170;BME280;11753;43.144;24.714;2023-04-09T05:08:04;100028.69;;;9.15;96.43
23170;BME280;11753;43.144;24.714;2023-04-09T05:09:05;100022.59;;;9.15;96.29
23170;BME280;11753;43.144;24.714;2023-04-09T05:10:07;100031.03;;;9.18;95.94
23170;BME280;11753;43.144;24.714;2023-04-09T05:11:11;100039.34;;;9.23;96.17
23170;BME280;11753;43.144;24.714;2023-04-09T05:12:12;100022.91;;;9.31;95.93
23170;BME280;11753;43.144;24.714;2023-04-09T05:13:14;100029.41;;;9.36;95.80
23170;BME280;11753;43.144;24.714;2023-04-09T05:14:15;100031.47;;;9.43;95.69
23170;BME280;11753;43.144;24.714;2023-04-09T05:15:16;100031.91;;;9.48;95.48
23170;BME280;11753;43.144;24.714;2023-04-09T05:16:19;100031.78;;;9.49;95.42
23170;BME280;11753;43.144;24.714;2023-04-09T05:17:20;100032.88;;;9.56;95.22
23170;BME280;11753;43.144;24.714;2023-04-09T05:18:21;100034.44;;;9.59;94.99
23170;BME280;11753;43.144;24.714;2023-04-09T05:19:21;100018.38;;;9.62;94.96
23170;BME280;11753;43.144;24.714;2023-04-09T05:20:22;100027.66;;;9.66;94.92
23170;BME280;11753;43.144;24.714;2023-04-09T05:21:23;100017.28;;;9.64;94.75
23170;BME280;11753;43.144;24.714;2023-04-09T05:22:24;100031.78;;;9.78;94.51
23170;BME280;11753;43.144;24.714;2023-04-09T05:23:25;100021.28;;;9.78;94.28
23170;BME280;11753;43.144;24.714;2023-04-09T05:24:25;100027.78;;;9.84;94.31
23170;BME280;11753;43.144;24.714;2023-04-09T05:25:26;100022.00;;;9.80;94.02
23170;BME280;11753;43.144;24.714;2023-04-09T05:26:27;100029.88;;;9.80;94.22
23170;BME280;11753;43.144;24.714;2023-04-09T05:27:28;100031.00;;;9.87;94.09
23170;BME280;11753;43.144;24.714;2023-04-09T05:28:29;100027.91;;;9.92;93.85
23170;BME280;11753;43.144;24.714;2023-04-09T05:29:30;100028.19;;;9.99;93.60
23170;BME280;11753;43.144;24.714;2023-04-09T05:30:31;100021.41;;;10.06;93.72
23170;BME280;11753;43.144;24.714;2023-04-09T05:31:34;100030.41;;;10.13;93.23
23170;BME280;11753;43.144;24.714;2023-04-09T05:32:38;100031.13;;;10.15;92.46
23170;BME280;11753;43.144;24.714;2023-04-09T05:33:38;100025.44;;;10.10;92.56
23170;BME280;11753;43.144;24.714;2023-04-09T05:34:39;100026.78;;;10.14;92.50
23170;BME280;11753;43.144;24.714;2023-04-09T05:35:40;100022.94;;;10.18;92.32